Gold Coast Airport Weather forecast (YBCG – OOL)

METAR

METAR YBCG 191630Z AUTO 18013KT 9999 // NCD 19/15 Q1016 RMK RF00.0/000.0

TAF

TAF YBCG 191118Z 1912/2012 33012KT CAVOK FM191500 19010KT 9999 SCT020 FM192300 13014KT 9999 SCT040 FM201100 27007KT 9999 SCT035 RMK T 19 17 16 18 Q 1016 1015 1017 1019

QNH (YBCG) Gold Coast

1016

Temperature & Dew Point

12° DP15